Time;durP1;ratioP1;P1;durP2;ratioP2;P2;SDS_P1;SDS_P2;PMS_P1;PMS_P2;Temp;Humidity;BMP_temperature;BMP_pressure;BME280_temperature;BME280_humidity;BME280_pressure;Samples;Min_cycle;Max_cycle;Signal;HPM_P1;HPM_P2
2021/05/20 00:04:23;;;;;;;5.13;2.00;;;14.30;89.40;;;;;;11949409;28;20133;-77
2021/05/20 00:10:10;;;;;;;8.05;1.90;;;14.40;89.90;;;;;;11949297;28;20045;-83
2021/05/20 00:15:57;;;;;;;4.88;1.90;;;14.30;90.20;;;;;;11956979;28;20116;-82
2021/05/20 00:21:44;;;;;;;8.68;2.38;;;14.30;90.40;;;;;;11934406;28;20068;-82
2021/05/20 00:27:31;;;;;;;9.35;1.90;;;14.20;90.50;;;;;;11953899;28;20053;-82
2021/05/20 00:33:17;;;;;;;9.40;2.58;;;14.30;90.10;;;;;;11944153;28;20095;-82
2021/05/20 00:39:05;;;;;;;3.67;2.10;;;14.20;89.60;;;;;;11948062;28;20500;-81
2021/05/20 00:44:53;;;;;;;6.70;2.35;;;14.10;90.30;;;;;;11935167;28;20052;-81
2021/05/20 00:50:39;;;;;;;11.00;2.35;;;14.00;90.70;;;;;;11948704;28;20713;-81
2021/05/20 00:56:27;;;;;;;5.60;1.88;;;14.00;90.70;;;;;;11955701;28;20046;-81
2021/05/20 01:02:13;;;;;;;9.65;2.20;;;14.00;90.50;;;;;;11954157;28;20531;-81
2021/05/20 01:08:00;;;;;;;5.97;1.90;;;13.90;90.50;;;;;;11945586;28;20061;-80
2021/05/20 01:13:47;;;;;;;5.45;2.00;;;13.90;90.70;;;;;;11954936;28;20132;-79
2021/05/20 01:19:35;;;;;;;8.00;2.28;;;13.90;90.40;;;;;;11957995;28;20072;-79
2021/05/20 01:25:23;;;;;;;7.28;1.92;;;13.80;90.30;;;;;;11959118;28;20045;-80
2021/05/20 01:31:09;;;;;;;5.85;2.10;;;13.80;91.00;;;;;;11959572;28;20062;-77
2021/05/20 01:36:55;;;;;;;6.18;2.00;;;13.70;91.10;;;;;;11956907;28;20058;-76
2021/05/20 01:42:43;;;;;;;7.60;2.25;;;13.60;91.20;;;;;;11948770;28;20052;-77
2021/05/20 01:48:31;;;;;;;3.25;1.67;;;13.50;91.20;;;;;;11919198;28;20451;-77
2021/05/20 01:54:17;;;;;;;8.23;1.92;;;13.40;91.30;;;;;;11946431;28;20056;-76
2021/05/20 02:00:08;;;;;;;5.32;2.08;;;13.40;91.20;;;;;;11947152;28;20053;-76
2021/05/20 02:05:57;;;;;;;5.43;1.63;;;13.40;91.40;;;;;;11960431;28;20071;-76
2021/05/20 02:11:43;;;;;;;6.00;1.88;;;13.30;91.60;;;;;;11951444;28;21751;-76
2021/05/20 02:17:30;;;;;;;5.97;1.92;;;13.40;91.40;;;;;;11946921;28;20060;-76
2021/05/20 02:23:17;;;;;;;3.22;1.90;;;13.40;91.60;;;;;;11926023;28;20056;-76
2021/05/20 02:29:04;;;;;;;6.65;1.83;;;13.30;91.60;;;;;;11945682;28;20053;-76
2021/05/20 06:32:25;;;;;;;26.08;4.30;;;12.80;99.90;;;;;;12041230;27;20360;-80
2021/05/20 06:38:11;;;;;;;23.23;3.92;;;13.50;99.90;;;;;;12031316;28;20049;-80
2021/05/20 06:43:58;;;;;;;18.67;4.05;;;14.10;99.90;;;;;;11995049;28;20044;-82
2021/05/20 06:49:57;;;;;;;17.83;3.10;;;14.50;99.90;;;;;;11981337;28;20060;-82
2021/05/20 06:55:43;;;;;;;14.45;2.90;;;14.80;99.90;;;;;;11954760;28;21541;-83
2021/05/20 07:01:47;;;;;;;10.88;3.35;;;15.00;99.90;;;;;;12012661;28;20055;-83
2021/05/20 07:07:53;;;;;;;13.90;2.28;;;15.10;99.90;;;;;;11982033;28;20438;-80
2021/05/20 07:13:40;;;;;;;5.47;2.30;;;15.20;99.90;;;;;;11985150;28;20051;-81
2021/05/20 07:19:26;;;;;;;6.00;2.15;;;15.30;99.90;;;;;;11998975;28;20048;-81
2021/05/20 07:25:14;;;;;;;7.47;1.88;;;15.30;99.90;;;;;;12014503;28;20167;-84
2021/05/20 07:31:00;;;;;;;4.80;1.50;;;15.30;99.90;;;;;;11953817;28;20515;-83
2021/05/20 07:50:16;;;;;;;9.48;1.30;;;15.50;96.40;;;;;;11313018;29;20051;-80
2021/05/20 08:02:52;;;;;;;5.20;1.05;;;16.10;94.10;;;;;;11618639;29;20056;-82
2021/05/20 08:08:50;;;;;;;9.60;1.30;;;15.80;92.90;;;;;;11685347;29;20055;-82
2021/05/20 08:14:38;;;;;;;13.25;1.73;;;16.10;92.60;;;;;;11685960;29;20877;-78
2021/05/20 08:20:26;;;;;;;2.80;1.25;;;16.10;92.60;;;;;;11679530;29;20524;-82
2021/05/20 08:26:14;;;;;;;5.97;1.33;;;16.10;93.10;;;;;;11673738;29;20106;-81
2021/05/20 08:32:00;;;;;;;5.63;1.50;;;16.10;93.50;;;;;;11695876;29;20067;-86
2021/05/20 08:37:46;;;;;;;4.03;1.27;;;16.10;93.70;;;;;;11719494;28;21280;-82
2021/05/20 08:43:34;;;;;;;6.00;1.65;;;15.90;94.30;;;;;;11741445;28;20054;-83
2021/05/20 08:49:20;;;;;;;9.73;1.48;;;16.00;94.40;;;;;;11722179;28;20055;-81
2021/05/20 08:55:09;;;;;;;4.57;1.52;;;16.20;94.70;;;;;;11735336;28;20134;-82
2021/05/20 09:00:56;;;;;;;6.43;1.27;;;16.40;94.50;;;;;;11739511;28;20074;-81
2021/05/20 09:06:46;;;;;;;6.30;1.63;;;16.40;94.70;;;;;;11736938;28;20058;-81
2021/05/20 09:12:33;;;;;;;8.23;1.65;;;16.40;94.00;;;;;;11656583;28;20071;-82
2021/05/20 09:18:40;;;;;;;10.07;1.50;;;16.50;93.60;;;;;;11721165;28;20554;-83
2021/05/20 09:24:45;;;;;;;2.58;1.40;;;17.00;93.90;;;;;;11701511;28;20621;-82
2021/05/20 09:30:33;;;;;;;5.38;1.55;;;17.20;92.40;;;;;;11737045;28;21703;-76
2021/05/20 09:36:28;;;;;;;7.20;1.60;;;17.00;91.80;;;;;;11714424;28;20059;-76
2021/05/20 09:42:15;;;;;;;7.30;1.90;;;17.10;91.10;;;;;;11736153;28;20067;-76
2021/05/20 09:48:06;;;;;;;7.30;1.42;;;17.20;91.40;;;;;;11732892;28;20051;-76
2021/05/20 09:53:53;;;;;;;4.75;1.77;;;17.30;91.10;;;;;;11702127;28;20616;-76
2021/05/20 09:59:40;;;;;;;7.85;1.45;;;17.40;88.70;;;;;;11739368;28;20149;-77
2021/05/20 10:05:48;;;;;;;9.40;1.30;;;17.00;88.20;;;;;;11736986;28;20545;-78
2021/05/20 10:11:36;;;;;;;4.90;1.35;;;17.10;87.60;;;;;;11728681;28;20582;-77
2021/05/20 10:17:23;;;;;;;3.00;1.20;;;17.20;88.00;;;;;;11708655;28;20599;-76
2021/05/20 10:23:11;;;;;;;3.30;1.27;;;17.50;87.60;;;;;;11732693;28;20047;-78
2021/05/20 10:28:58;;;;;;;2.63;1.23;;;17.70;82.00;;;;;;11735163;28;20046;-78
2021/05/20 10:34:58;;;;;;;2.65;1.25;;;17.80;83.70;;;;;;11731404;28;20051;-77
2021/05/20 10:40:45;;;;;;;4.72;1.20;;;18.20;82.20;;;;;;11732195;28;20427;-76
2021/05/20 10:46:32;;;;;;;3.35;1.27;;;18.40;80.40;;;;;;11737166;28;20059;-76
2021/05/20 10:52:45;;;;;;;4.15;1.13;;;18.30;78.40;;;;;;11731471;28;20058;-76
2021/05/20 10:58:35;;;;;;;6.38;1.55;;;18.40;80.40;;;;;;11743992;28;20499;-75
2021/05/20 11:04:34;;;;;;;3.40;1.52;;;18.30;78.60;;;;;;11969393;28;20065;-75
2021/05/20 11:10:36;;;;;;;6.47;1.55;;;18.00;79.20;;;;;;11970576;28;20512;-76
2021/05/20 11:16:29;;;;;;;5.03;1.38;;;18.00;81.50;;;;;;11921887;28;20052;-75
2021/05/20 11:22:17;;;;;;;5.32;1.23;;;18.30;80.00;;;;;;11946587;28;20050;-76
2021/05/20 11:28:07;;;;;;;2.83;1.02;;;18.20;80.20;;;;;;11971692;28;20397;-76
2021/05/20 11:34:08;;;;;;;5.38;1.25;;;18.00;81.20;;;;;;11975326;28;20076;-77
2021/05/20 11:39:55;;;;;;;3.75;1.00;;;17.90;81.80;;;;;;11939446;28;20132;-77
2021/05/20 11:45:41;;;;;;;4.15;1.35;;;17.70;82.10;;;;;;11944363;28;20053;-76
2021/05/20 11:51:42;;;;;;;3.30;1.20;;;18.10;81.30;;;;;;11970046;28;20057;-77
2021/05/20 11:57:29;;;;;;;4.50;2.15;;;18.20;79.60;;;;;;11972172;28;20041;-78
2021/05/20 12:03:26;;;;;;;7.15;1.33;;;18.50;81.00;;;;;;11980760;28;20049;-78
2021/05/20 12:09:16;;;;;;;3.67;1.02;;;18.70;78.10;;;;;;11968541;28;20045;-78
2021/05/20 12:15:11;;;;;;;4.65;0.90;;;18.90;78.20;;;;;;11974015;28;20094;-78
2021/05/20 12:20:58;;;;;;;3.50;1.20;;;19.10;76.70;;;;;;11982133;28;20057;-82
2021/05/20 12:26:44;;;;;;;4.38;1.30;;;19.00;76.30;;;;;;11943187;28;20064;-81
2021/05/20 12:32:38;;;;;;;7.45;1.40;;;19.00;77.90;;;;;;11960659;28;20053;-79
2021/05/20 12:38:30;;;;;;;2.22;0.95;;;18.90;77.70;;;;;;11972695;28;20148;-80
2021/05/20 12:44:17;;;;;;;6.05;1.00;;;19.10;78.60;;;;;;11950183;28;20056;-80
2021/05/20 12:50:05;;;;;;;2.38;0.90;;;19.50;77.20;;;;;;11961734;28;20057;-82
2021/05/20 12:55:53;;;;;;;3.35;0.80;;;19.50;77.00;;;;;;11924397;28;20059;-80
2021/05/20 13:01:43;;;;;;;2.53;0.70;;;19.70;74.70;;;;;;11966612;28;20178;-79
2021/05/20 13:07:32;;;;;;;6.72;1.20;;;19.40;77.30;;;;;;11969199;28;20123;-80
2021/05/20 13:13:35;;;;;;;3.47;1.42;;;19.70;75.90;;;;;;11961953;28;20447;-81
2021/05/20 13:25:22;;;;;;;3.55;1.00;;;19.90;76.00;;;;;;11973668;28;20470;-81
2021/05/20 13:31:10;;;;;;;2.95;0.80;;;20.20;75.70;;;;;;11969506;28;20068;-80
2021/05/20 13:36:56;;;;;;;1.67;0.80;;;20.30;75.60;;;;;;11968502;28;20089;-80
2021/05/20 13:42:44;;;;;;;4.00;1.00;;;19.90;75.00;;;;;;11940969;28;21057;-80
2021/05/20 13:48:31;;;;;;;3.10;0.80;;;19.60;75.50;;;;;;11972868;28;20103;-80
2021/05/20 13:54:17;;;;;;;1.40;0.63;;;19.90;76.60;;;;;;11947235;28;20194;-82
2021/05/20 14:00:09;;;;;;;2.95;0.80;;;20.30;75.10;;;;;;11968609;28;20068;-81
2021/05/20 14:05:56;;;;;;;2.20;0.60;;;20.80;73.00;;;;;;11966822;28;20446;-83
2021/05/20 14:11:44;;;;;;;5.82;0.90;;;20.80;72.00;;;;;;11966355;28;20110;-81
2021/05/20 14:17:31;;;;;;;3.70;0.95;;;20.60;71.40;;;;;;11959484;28;20160;-79
2021/05/20 14:23:17;;;;;;;2.33;0.80;;;20.60;72.10;;;;;;11957525;28;20053;-80
2021/05/20 14:29:04;;;;;;;1.90;0.80;;;20.50;70.70;;;;;;11968847;28;20523;-81
2021/05/20 14:34:54;;;;;;;8.32;0.85;;;20.30;69.50;;;;;;11955128;28;20099;-79
2021/05/20 14:40:40;;;;;;;4.82;0.95;;;20.30;68.10;;;;;;11935603;28;20094;-80
2021/05/20 14:46:27;;;;;;;4.50;0.70;;;19.60;70.10;;;;;;11970431;28;20049;-80
2021/05/20 14:52:21;;;;;;;4.28;0.95;;;19.10;71.10;;;;;;11985434;28;20065;-80
2021/05/20 15:10:28;;;;;;;2.50;0.80;;;19.60;71.80;;;;;;11977630;28;20124;-82
2021/05/20 15:16:17;;;;;;;2.20;0.95;;;19.70;71.10;;;;;;11951083;28;20050;-80
2021/05/20 15:22:03;;;;;;;5.07;0.82;;;19.90;71.80;;;;;;11951078;28;20049;-81
2021/05/20 15:27:51;;;;;;;4.63;0.88;;;20.10;70.50;;;;;;11969435;28;20056;-81
2021/05/20 15:33:40;;;;;;;4.20;0.60;;;20.20;69.10;;;;;;11973627;28;20060;-79
2021/05/20 15:39:26;;;;;;;9.02;5.88;;;20.40;68.30;;;;;;11976014;28;20060;-81
2021/05/20 15:45:14;;;;;;;3.88;0.80;;;20.50;67.60;;;;;;11976199;28;20044;-81
2021/05/20 15:51:04;;;;;;;1.40;0.70;;;20.30;68.20;;;;;;11977353;28;20049;-81
2021/05/20 15:56:50;;;;;;;4.72;0.80;;;20.30;68.90;;;;;;11942278;28;20052;-81
2021/05/20 16:02:38;;;;;;;2.67;0.63;;;19.90;70.40;;;;;;11964473;28;20045;-81
2021/05/20 16:08:28;;;;;;;3.58;0.80;;;20.00;70.20;;;;;;11981714;28;20571;-78
2021/05/20 16:14:20;;;;;;;3.75;0.73;;;19.90;70.90;;;;;;11969806;28;20053;-77
2021/05/20 16:20:09;;;;;;;1.67;0.70;;;19.90;70.80;;;;;;11964178;28;20079;-76
2021/05/20 16:26:18;;;;;;;3.28;0.95;;;19.70;70.10;;;;;;11971404;28;20057;-76
2021/05/20 16:38:11;;;;;;;3.90;0.68;;;19.80;70.80;;;;;;11974756;28;20523;-75
2021/05/20 16:43:57;;;;;;;1.77;0.50;;;19.60;71.60;;;;;;11964584;28;20055;-75
2021/05/20 16:49:44;;;;;;;2.20;0.70;;;19.70;72.00;;;;;;11938305;28;20060;-75
2021/05/20 16:55:34;;;;;;;3.03;0.80;;;19.50;71.40;;;;;;11967120;28;20048;-73
2021/05/20 17:01:21;;;;;;;3.30;0.80;;;19.20;72.10;;;;;;11968306;28;20140;-74
2021/05/20 17:07:07;;;;;;;2.38;1.00;;;18.90;73.30;;;;;;11965801;28;20049;-74
2021/05/20 17:12:56;;;;;;;4.60;1.00;;;18.70;73.10;;;;;;11939684;28;20057;-74
2021/05/20 17:18:43;;;;;;;4.82;1.20;;;18.90;73.50;;;;;;11966387;28;20573;-76
2021/05/20 17:24:29;;;;;;;3.10;0.55;;;19.20;73.60;;;;;;11964516;28;20080;-75
2021/05/20 17:30:17;;;;;;;7.35;0.68;;;19.30;73.10;;;;;;11965629;28;20045;-74
2021/05/20 17:36:09;;;;;;;2.40;0.93;;;19.30;73.70;;;;;;11959726;28;20629;-75
2021/05/20 17:41:55;;;;;;;2.97;0.70;;;19.10;73.30;;;;;;11932310;28;20060;-75
2021/05/20 17:47:43;;;;;;;5.05;0.90;;;19.00;73.70;;;;;;11971503;28;20049;-75
2021/05/20 17:53:30;;;;;;;4.30;0.90;;;19.20;72.90;;;;;;11970732;28;20045;-74
2021/05/20 17:59:18;;;;;;;2.50;0.80;;;19.00;72.60;;;;;;11962053;28;20055;-75
2021/05/20 18:05:06;;;;;;;2.80;0.57;;;18.90;71.70;;;;;;11953062;28;20071;-75
2021/05/20 18:11:03;;;;;;;4.80;0.93;;;18.60;72.10;;;;;;11962920;28;20106;-75
2021/05/20 18:16:59;;;;;;;3.30;1.05;;;18.50;71.10;;;;;;11969743;28;20499;-75
2021/05/20 18:22:47;;;;;;;1.23;0.60;;;18.40;71.70;;;;;;11965193;28;20139;-75
2021/05/20 18:28:37;;;;;;;1.75;0.60;;;18.30;71.50;;;;;;11938188;28;20052;-78
2021/05/20 18:34:23;;;;;;;1.98;0.63;;;18.40;71.20;;;;;;11957147;28;20118;-75
2021/05/20 18:40:12;;;;;;;2.22;0.82;;;18.10;72.30;;;;;;11955169;28;20056;-75
2021/05/20 18:45:58;;;;;;;12.45;1.55;;;18.10;72.70;;;;;;11958272;28;20148;-75
2021/05/20 18:51:45;;;;;;;3.92;1.08;;;18.10;73.70;;;;;;11952263;28;20053;-75
2021/05/20 18:57:36;;;;;;;3.97;1.38;;;18.10;73.30;;;;;;11956132;28;20460;-76
2021/05/20 19:03:24;;;;;;;2.83;0.90;;;18.00;74.20;;;;;;11974465;28;20072;-76
2021/05/20 19:09:11;;;;;;;3.38;1.00;;;17.80;74.90;;;;;;11929800;28;20053;-76
2021/05/20 19:14:59;;;;;;;3.63;1.33;;;17.80;75.30;;;;;;11944465;28;20539;-73
2021/05/20 19:20:47;;;;;;;6.07;0.65;;;17.80;75.40;;;;;;11939423;28;20049;-75
2021/05/20 19:26:34;;;;;;;2.22;0.80;;;17.90;75.30;;;;;;11957656;28;20064;-75
2021/05/20 19:32:23;;;;;;;3.80;0.90;;;17.80;75.60;;;;;;11932851;28;20550;-76
2021/05/20 19:38:10;;;;;;;4.32;0.82;;;17.70;75.90;;;;;;11921037;28;20056;-76
2021/05/20 19:43:56;;;;;;;1.70;0.93;;;17.80;75.90;;;;;;11962266;28;20853;-75
2021/05/20 19:49:51;;;;;;;5.35;1.02;;;17.90;75.90;;;;;;11966691;28;20053;-81
2021/05/20 20:01:43;;;;;;;2.25;0.70;;;17.80;76.90;;;;;;11972164;28;20087;-77
2021/05/20 20:07:37;;;;;;;1.42;0.70;;;17.40;78.20;;;;;;11980305;28;20084;-79
2021/05/20 20:13:24;;;;;;;3.40;0.90;;;17.50;77.90;;;;;;11984189;28;20049;-79
2021/05/20 20:19:14;;;;;;;2.95;1.27;;;17.50;78.10;;;;;;11976422;28;20061;-79
2021/05/20 20:25:12;;;;;;;2.97;1.08;;;17.50;78.10;;;;;;11973832;28;20601;-80
2021/05/20 20:31:00;;;;;;;2.00;0.75;;;17.50;78.40;;;;;;11977600;28;20048;-79
2021/05/20 20:36:53;;;;;;;5.18;0.98;;;17.60;78.60;;;;;;11973720;28;20059;-80
2021/05/20 20:42:40;;;;;;;5.80;0.93;;;17.40;78.90;;;;;;11986087;28;20057;-79
2021/05/20 20:48:27;;;;;;;3.35;0.73;;;17.40;79.20;;;;;;11974378;28;20686;-79
2021/05/20 20:54:14;;;;;;;3.85;1.00;;;17.30;80.00;;;;;;11981036;28;20048;-79
2021/05/20 21:00:03;;;;;;;1.65;0.80;;;17.10;80.90;;;;;;11970542;28;20048;-80
2021/05/20 21:05:50;;;;;;;6.00;1.10;;;16.90;82.10;;;;;;11976342;28;20049;-80
2021/05/20 21:11:37;;;;;;;3.90;1.00;;;17.00;83.10;;;;;;11971338;28;20814;-79
2021/05/20 21:17:25;;;;;;;2.25;1.08;;;17.00;82.70;;;;;;11969604;28;20057;-80
2021/05/20 21:23:11;;;;;;;3.15;0.93;;;17.10;82.90;;;;;;11956934;28;20495;-80
2021/05/20 21:28:58;;;;;;;3.67;1.02;;;17.00;83.90;;;;;;11948207;28;20180;-79
2021/05/20 21:34:45;;;;;;;8.55;1.20;;;17.10;84.10;;;;;;11975622;28;20541;-79
2021/05/20 21:40:33;;;;;;;2.63;0.90;;;17.00;84.30;;;;;;11973791;28;20037;-81
2021/05/20 21:46:19;;;;;;;4.63;1.20;;;16.90;85.10;;;;;;11965753;28;20045;-76
2021/05/20 21:52:07;;;;;;;3.40;1.00;;;16.90;85.20;;;;;;11963378;28;20080;-78
2021/05/20 21:57:54;;;;;;;6.88;1.23;;;17.00;85.40;;;;;;11937382;28;20056;-77
2021/05/20 22:03:40;;;;;;;3.33;0.93;;;16.90;85.50;;;;;;11954252;28;20060;-77
2021/05/20 22:09:31;;;;;;;2.50;1.10;;;17.00;85.80;;;;;;11962705;28;20167;-77
2021/05/20 22:15:18;;;;;;;2.20;0.90;;;17.10;86.10;;;;;;11964525;28;20048;-77
2021/05/20 22:21:05;;;;;;;5.30;1.05;;;17.00;85.70;;;;;;11973394;28;20048;-77
2021/05/20 22:27:02;;;;;;;6.13;1.50;;;16.90;86.00;;;;;;11922670;28;20052;-77
2021/05/20 22:32:49;;;;;;;4.15;1.17;;;16.90;86.40;;;;;;11956743;28;20080;-77
2021/05/20 22:38:35;;;;;;;3.38;1.08;;;16.90;86.80;;;;;;11971932;28;20041;-77
2021/05/20 22:44:23;;;;;;;4.78;1.10;;;16.80;87.10;;;;;;11990547;28;20071;-77
2021/05/20 22:50:13;;;;;;;4.47;1.10;;;16.60;87.10;;;;;;11993045;28;20115;-77
2021/05/20 22:56:00;;;;;;;4.43;1.05;;;16.50;87.30;;;;;;11991335;28;20056;-77
2021/05/20 23:01:50;;;;;;;6.32;1.23;;;16.50;87.60;;;;;;11993919;28;20438;-76
2021/05/20 23:07:37;;;;;;;2.63;1.08;;;16.50;87.80;;;;;;11993358;28;20049;-76
2021/05/20 23:13:23;;;;;;;4.97;1.17;;;16.40;87.90;;;;;;11996869;28;20132;-77
2021/05/20 23:19:10;;;;;;;2.13;1.10;;;16.40;88.10;;;;;;11999744;28;20041;-73
2021/05/20 23:24:57;;;;;;;6.35;1.17;;;16.30;88.40;;;;;;12000597;28;20056;-73
2021/05/20 23:30:43;;;;;;;9.13;1.45;;;16.30;88.90;;;;;;11996806;28;20511;-73
2021/05/20 23:36:34;;;;;;;6.15;1.50;;;16.10;90.00;;;;;;11995225;28;20040;-73
2021/05/20 23:42:20;;;;;;;4.53;1.30;;;16.00;90.40;;;;;;11996931;28;20049;-73
2021/05/20 23:48:07;;;;;;;6.93;1.50;;;16.10;90.30;;;;;;11997023;28;20450;-74
2021/05/20 23:53:54;;;;;;;3.65;1.38;;;16.20;90.20;;;;;;11994321;28;20057;-73
2021/05/20 23:59:41;;;;;;;6.10;1.30;;;16.10;90.40;;;;;;11965242;28;20053;-74
